sensor_id;sensor_type;location;lat;lon;timestamp;P1;durP1;ratioP1;P2;durP2;ratioP2
44145;SDS011;29809;52.432;4.780;2023-02-15T00:01:20;9.27;;;8.40;;
44145;SDS011;29809;52.432;4.780;2023-02-15T00:03:49;8.23;;;7.53;;
44145;SDS011;29809;52.432;4.780;2023-02-15T00:06:14;8.90;;;8.00;;
44145;SDS011;29809;52.432;4.780;2023-02-15T00:08:40;8.68;;;7.97;;
44145;SDS011;29809;52.432;4.780;2023-02-15T00:11:09;8.70;;;7.90;;
44145;SDS011;29809;52.432;4.780;2023-02-15T00:13:35;10.07;;;9.07;;
44145;SDS011;29809;52.432;4.780;2023-02-15T00:16:05;10.18;;;8.65;;
44145;SDS011;29809;52.432;4.780;2023-02-15T00:18:31;10.13;;;9.13;;
44145;SDS011;29809;52.432;4.780;2023-02-15T00:20:56;9.73;;;8.82;;
44145;SDS011;29809;52.432;4.780;2023-02-15T00:23:21;10.23;;;9.23;;
44145;SDS011;29809;52.432;4.780;2023-02-15T00:25:47;10.50;;;9.50;;
44145;SDS011;29809;52.432;4.780;2023-02-15T00:28:12;9.70;;;8.80;;
44145;SDS011;29809;52.432;4.780;2023-02-15T00:30:37;10.40;;;9.30;;
44145;SDS011;29809;52.432;4.780;2023-02-15T00:33:02;10.30;;;9.30;;
44145;SDS011;29809;52.432;4.780;2023-02-15T00:35:28;9.63;;;8.75;;
44145;SDS011;29809;52.432;4.780;2023-02-15T00:37:53;10.88;;;9.77;;
44145;SDS011;29809;52.432;4.780;2023-02-15T00:40:18;10.70;;;9.70;;
44145;SDS011;29809;52.432;4.780;2023-02-15T00:42:43;10.10;;;9.20;;
44145;SDS011;29809;52.432;4.780;2023-02-15T00:45:09;11.75;;;10.60;;
44145;SDS011;29809;52.432;4.780;2023-02-15T00:47:34;10.77;;;9.68;;
44145;SDS011;29809;52.432;4.780;2023-02-15T00:49:59;10.52;;;9.52;;
44145;SDS011;29809;52.432;4.780;2023-02-15T00:52:24;11.85;;;10.65;;
44145;SDS011;29809;52.432;4.780;2023-02-15T00:54:49;11.73;;;10.52;;
44145;SDS011;29809;52.432;4.780;2023-02-15T00:57:15;11.40;;;10.30;;
44145;SDS011;29809;52.432;4.780;2023-02-15T00:59:40;11.60;;;10.48;;
44145;SDS011;29809;52.432;4.780;2023-02-15T01:02:05;11.77;;;10.00;;
44145;SDS011;29809;52.432;4.780;2023-02-15T01:04:30;10.95;;;9.90;;
44145;SDS011;29809;52.432;4.780;2023-02-15T01:06:56;11.77;;;10.05;;
44145;SDS011;29809;52.432;4.780;2023-02-15T01:09:21;11.68;;;10.63;;
44145;SDS011;29809;52.432;4.780;2023-02-15T01:11:47;11.30;;;10.20;;
44145;SDS011;29809;52.432;4.780;2023-02-15T01:14:12;12.15;;;10.35;;
44145;SDS011;29809;52.432;4.780;2023-02-15T01:16:38;11.38;;;10.27;;
44145;SDS011;29809;52.432;4.780;2023-02-15T01:19:03;11.05;;;10.05;;
44145;SDS011;29809;52.432;4.780;2023-02-15T01:21:28;11.93;;;10.82;;
44145;SDS011;29809;52.432;4.780;2023-02-15T01:23:54;12.43;;;11.15;;
44145;SDS011;29809;52.432;4.780;2023-02-15T01:26:19;12.57;;;11.32;;
44145;SDS011;29809;52.432;4.780;2023-02-15T01:28:45;12.35;;;11.10;;
44145;SDS011;29809;52.432;4.780;2023-02-15T01:31:14;13.65;;;12.35;;
44145;SDS011;29809;52.432;4.780;2023-02-15T01:33:40;13.05;;;11.75;;
44145;SDS011;29809;52.432;4.780;2023-02-15T01:36:06;13.55;;;12.15;;
44145;SDS011;29809;52.432;4.780;2023-02-15T01:38:31;11.85;;;10.50;;
44145;SDS011;29809;52.432;4.780;2023-02-15T01:40:57;14.10;;;12.65;;
44145;SDS011;29809;52.432;4.780;2023-02-15T01:43:43;13.15;;;11.85;;
44145;SDS011;29809;52.432;4.780;2023-02-15T01:46:09;16.95;;;12.77;;
44145;SDS011;29809;52.432;4.780;2023-02-15T01:48:36;13.90;;;12.50;;
44145;SDS011;29809;52.432;4.780;2023-02-15T01:51:04;13.38;;;11.98;;
44145;SDS011;29809;52.432;4.780;2023-02-15T01:53:37;13.98;;;12.57;;
44145;SDS011;29809;52.432;4.780;2023-02-15T01:56:15;13.98;;;12.57;;
44145;SDS011;29809;52.432;4.780;2023-02-15T01:58:42;15.40;;;13.38;;
44145;SDS011;29809;52.432;4.780;2023-02-15T02:01:07;14.30;;;12.90;;
44145;SDS011;29809;52.432;4.780;2023-02-15T02:06:17;15.77;;;14.18;;
44145;SDS011;29809;52.432;4.780;2023-02-15T02:08:42;14.73;;;13.23;;
44145;SDS011;29809;52.432;4.780;2023-02-15T02:11:12;15.15;;;13.68;;
44145;SDS011;29809;52.432;4.780;2023-02-15T02:13:38;14.70;;;13.30;;
44145;SDS011;29809;52.432;4.780;2023-02-15T02:16:08;15.10;;;13.60;;
44145;SDS011;29809;52.432;4.780;2023-02-15T02:18:44;14.15;;;12.80;;
44145;SDS011;29809;52.432;4.780;2023-02-15T02:21:48;13.80;;;12.52;;
44145;SDS011;29809;52.432;4.780;2023-02-15T02:24:16;14.75;;;13.25;;
44145;SDS011;29809;52.432;4.780;2023-02-15T02:29:19;12.80;;;11.60;;
44145;SDS011;29809;52.432;4.780;2023-02-15T02:34:15;13.13;;;11.82;;
44145;SDS011;29809;52.432;4.780;2023-02-15T02:44:33;12.80;;;11.60;;
44145;SDS011;29809;52.432;4.780;2023-02-15T02:49:29;11.32;;;10.23;;
44145;SDS011;29809;52.432;4.780;2023-02-15T02:51:58;10.90;;;9.90;;
44145;SDS011;29809;52.432;4.780;2023-02-15T02:54:23;11.98;;;10.80;;
44145;SDS011;29809;52.432;4.780;2023-02-15T02:56:49;10.95;;;9.95;;
44145;SDS011;29809;52.432;4.780;2023-02-15T02:59:17;10.93;;;9.93;;
44145;SDS011;29809;52.432;4.780;2023-02-15T03:01:52;10.47;;;9.47;;
44145;SDS011;29809;52.432;4.780;2023-02-15T03:04:20;11.25;;;9.98;;
44145;SDS011;29809;52.432;4.780;2023-02-15T03:06:48;10.57;;;9.57;;
44145;SDS011;29809;52.432;4.780;2023-02-15T03:09:21;10.43;;;9.43;;
44145;SDS011;29809;52.432;4.780;2023-02-15T03:11:48;11.68;;;10.57;;
44145;SDS011;29809;52.432;4.780;2023-02-15T03:14:14;10.52;;;9.52;;
44145;SDS011;29809;52.432;4.780;2023-02-15T03:16:40;11.15;;;10.07;;
44145;SDS011;29809;52.432;4.780;2023-02-15T03:19:08;11.47;;;10.40;;
44145;SDS011;29809;52.432;4.780;2023-02-15T03:21:35;11.50;;;10.40;;
44145;SDS011;29809;52.432;4.780;2023-02-15T03:24:09;11.13;;;10.00;;
44145;SDS011;29809;52.432;4.780;2023-02-15T03:26:35;11.55;;;10.40;;
44145;SDS011;29809;52.432;4.780;2023-02-15T03:29:02;11.43;;;10.32;;
44145;SDS011;29809;52.432;4.780;2023-02-15T03:31:29;12.07;;;10.88;;
44145;SDS011;29809;52.432;4.780;2023-02-15T03:33:58;11.23;;;10.17;;
44145;SDS011;29809;52.432;4.780;2023-02-15T03:38:59;10.47;;;9.47;;
44145;SDS011;29809;52.432;4.780;2023-02-15T03:41:26;11.87;;;10.60;;
44145;SDS011;29809;52.432;4.780;2023-02-15T03:43:56;11.37;;;10.17;;
44145;SDS011;29809;52.432;4.780;2023-02-15T03:49:02;11.87;;;10.77;;
44145;SDS011;29809;52.432;4.780;2023-02-15T03:51:29;11.68;;;10.52;;
44145;SDS011;29809;52.432;4.780;2023-02-15T03:54:06;12.18;;;10.95;;
44145;SDS011;29809;52.432;4.780;2023-02-15T03:56:33;10.77;;;9.68;;
44145;SDS011;29809;52.432;4.780;2023-02-15T03:58:59;12.63;;;11.30;;
44145;SDS011;29809;52.432;4.780;2023-02-15T04:02:00;11.93;;;10.77;;
44145;SDS011;29809;52.432;4.780;2023-02-15T04:04:31;11.65;;;10.45;;
44145;SDS011;29809;52.432;4.780;2023-02-15T04:06:57;12.15;;;10.95;;
44145;SDS011;29809;52.432;4.780;2023-02-15T04:09:22;11.07;;;9.93;;
44145;SDS011;29809;52.432;4.780;2023-02-15T04:12:06;12.07;;;10.45;;
44145;SDS011;29809;52.432;4.780;2023-02-15T04:14:32;12.13;;;10.83;;
44145;SDS011;29809;52.432;4.780;2023-02-15T04:17:16;12.00;;;10.90;;
44145;SDS011;29809;52.432;4.780;2023-02-15T04:19:41;11.95;;;10.82;;
44145;SDS011;29809;52.432;4.780;2023-02-15T04:22:25;11.88;;;10.63;;
44145;SDS011;29809;52.432;4.780;2023-02-15T04:25:09;11.50;;;10.40;;
44145;SDS011;29809;52.432;4.780;2023-02-15T04:27:34;10.87;;;9.77;;
44145;SDS011;29809;52.432;4.780;2023-02-15T04:29:59;12.45;;;10.80;;
44145;SDS011;29809;52.432;4.780;2023-02-15T04:32:24;12.13;;;10.93;;
44145;SDS011;29809;52.432;4.780;2023-02-15T04:34:50;12.07;;;10.73;;
44145;SDS011;29809;52.432;4.780;2023-02-15T04:37:15;11.05;;;10.00;;
44145;SDS011;29809;52.432;4.780;2023-02-15T04:39:40;11.13;;;10.13;;
44145;SDS011;29809;52.432;4.780;2023-02-15T04:42:06;10.50;;;9.45;;
44145;SDS011;29809;52.432;4.780;2023-02-15T04:44:31;12.43;;;11.00;;
44145;SDS011;29809;52.432;4.780;2023-02-15T04:46:56;11.57;;;10.48;;
44145;SDS011;29809;52.432;4.780;2023-02-15T04:49:21;12.15;;;10.98;;
44145;SDS011;29809;52.432;4.780;2023-02-15T04:51:47;11.18;;;10.15;;
44145;SDS011;29809;52.432;4.780;2023-02-15T04:54:12;12.40;;;11.20;;
44145;SDS011;29809;52.432;4.780;2023-02-15T04:56:37;12.07;;;10.87;;
44145;SDS011;29809;52.432;4.780;2023-02-15T04:59:03;12.45;;;11.18;;
44145;SDS011;29809;52.432;4.780;2023-02-15T05:01:29;11.93;;;10.73;;
44145;SDS011;29809;52.432;4.780;2023-02-15T05:03:54;12.05;;;10.88;;
44145;SDS011;29809;52.432;4.780;2023-02-15T05:06:19;11.57;;;10.37;;
44145;SDS011;29809;52.432;4.780;2023-02-15T05:08:45;13.10;;;11.77;;
44145;SDS011;29809;52.432;4.780;2023-02-15T05:11:10;11.93;;;10.73;;
44145;SDS011;29809;52.432;4.780;2023-02-15T05:13:35;12.63;;;11.43;;
44145;SDS011;29809;52.432;4.780;2023-02-15T05:16:00;11.68;;;10.52;;
44145;SDS011;29809;52.432;4.780;2023-02-15T05:18:26;12.07;;;10.70;;
44145;SDS011;29809;52.432;4.780;2023-02-15T05:20:51;12.05;;;10.93;;
44145;SDS011;29809;52.432;4.780;2023-02-15T05:23:16;11.97;;;10.77;;
44145;SDS011;29809;52.432;4.780;2023-02-15T05:25:45;12.93;;;11.47;;
44145;SDS011;29809;52.432;4.780;2023-02-15T05:28:30;12.48;;;10.18;;
44145;SDS011;29809;52.432;4.780;2023-02-15T05:33:29;13.17;;;11.50;;
44145;SDS011;29809;52.432;4.780;2023-02-15T05:35:54;12.23;;;11.03;;
44145;SDS011;29809;52.432;4.780;2023-02-15T05:38:20;14.00;;;11.07;;
44145;SDS011;29809;52.432;4.780;2023-02-15T05:40:45;11.50;;;10.27;;
44145;SDS011;29809;52.432;4.780;2023-02-15T05:43:10;14.40;;;11.83;;
44145;SDS011;29809;52.432;4.780;2023-02-15T05:45:35;12.30;;;11.03;;
44145;SDS011;29809;52.432;4.780;2023-02-15T05:48:01;12.18;;;10.43;;
44145;SDS011;29809;52.432;4.780;2023-02-15T05:50:26;12.93;;;10.27;;
44145;SDS011;29809;52.432;4.780;2023-02-15T05:52:51;11.67;;;10.47;;
44145;SDS011;29809;52.432;4.780;2023-02-15T05:55:17;15.75;;;11.38;;
44145;SDS011;29809;52.432;4.780;2023-02-15T05:57:42;131.65;;;41.65;;
44145;SDS011;29809;52.432;4.780;2023-02-15T06:00:07;103.90;;;34.22;;
44145;SDS011;29809;52.432;4.780;2023-02-15T06:02:34;102.43;;;35.17;;
44145;SDS011;29809;52.432;4.780;2023-02-15T06:05:00;79.43;;;32.45;;
44145;SDS011;29809;52.432;4.780;2023-02-15T06:07:25;90.78;;;33.80;;
44145;SDS011;29809;52.432;4.780;2023-02-15T06:09:50;66.63;;;28.60;;
44145;SDS011;29809;52.432;4.780;2023-02-15T06:12:15;73.97;;;29.13;;
44145;SDS011;29809;52.432;4.780;2023-02-15T06:14:41;64.97;;;27.27;;
44145;SDS011;29809;52.432;4.780;2023-02-15T06:17:06;59.77;;;26.43;;
44145;SDS011;29809;52.432;4.780;2023-02-15T06:19:31;56.90;;;25.30;;
44145;SDS011;29809;52.432;4.780;2023-02-15T06:21:57;58.60;;;24.17;;
44145;SDS011;29809;52.432;4.780;2023-02-15T06:24:22;48.60;;;22.47;;
44145;SDS011;29809;52.432;4.780;2023-02-15T06:26:47;44.63;;;21.03;;
44145;SDS011;29809;52.432;4.780;2023-02-15T06:29:12;42.10;;;21.03;;
44145;SDS011;29809;52.432;4.780;2023-02-15T06:31:38;31.27;;;19.67;;
44145;SDS011;29809;52.432;4.780;2023-02-15T06:34:03;40.53;;;20.77;;
44145;SDS011;29809;52.432;4.780;2023-02-15T06:36:28;35.73;;;20.53;;
44145;SDS011;29809;52.432;4.780;2023-02-15T06:38:54;40.13;;;20.27;;
44145;SDS011;29809;52.432;4.780;2023-02-15T06:41:19;35.33;;;18.90;;
44145;SDS011;29809;52.432;4.780;2023-02-15T06:43:45;31.77;;;17.45;;
44145;SDS011;29809;52.432;4.780;2023-02-15T06:46:10;27.17;;;16.90;;
44145;SDS011;29809;52.432;4.780;2023-02-15T06:48:35;29.13;;;16.50;;
44145;SDS011;29809;52.432;4.780;2023-02-15T06:51:00;32.67;;;16.77;;
44145;SDS011;29809;52.432;4.780;2023-02-15T06:53:26;24.40;;;16.05;;
44145;SDS011;29809;52.432;4.780;2023-02-15T06:55:51;29.85;;;16.27;;
44145;SDS011;29809;52.432;4.780;2023-02-15T06:58:16;25.37;;;16.30;;
44145;SDS011;29809;52.432;4.780;2023-02-15T07:00:41;29.70;;;16.23;;
44145;SDS011;29809;52.432;4.780;2023-02-15T07:03:07;22.00;;;15.23;;
44145;SDS011;29809;52.432;4.780;2023-02-15T07:05:32;24.77;;;15.88;;
44145;SDS011;29809;52.432;4.780;2023-02-15T07:07:58;26.67;;;16.17;;
44145;SDS011;29809;52.432;4.780;2023-02-15T07:10:23;19.95;;;14.05;;
44145;SDS011;29809;52.432;4.780;2023-02-15T07:12:50;19.95;;;12.38;;
44145;SDS011;29809;52.432;4.780;2023-02-15T07:15:16;17.33;;;12.67;;
44145;SDS011;29809;52.432;4.780;2023-02-15T07:17:41;18.35;;;12.68;;
44145;SDS011;29809;52.432;4.780;2023-02-15T07:20:10;20.10;;;11.98;;
44145;SDS011;29809;52.432;4.780;2023-02-15T07:22:36;17.97;;;12.13;;
44145;SDS011;29809;52.432;4.780;2023-02-15T07:25:05;20.97;;;12.33;;
44145;SDS011;29809;52.432;4.780;2023-02-15T07:27:31;19.47;;;12.87;;
44145;SDS011;29809;52.432;4.780;2023-02-15T07:29:59;20.15;;;11.45;;
44145;SDS011;29809;52.432;4.780;2023-02-15T07:32:28;21.92;;;12.13;;
44145;SDS011;29809;52.432;4.780;2023-02-15T07:34:54;16.98;;;11.38;;
44145;SDS011;29809;52.432;4.780;2023-02-15T07:37:19;17.17;;;12.38;;
44145;SDS011;29809;52.432;4.780;2023-02-15T07:39:45;19.50;;;12.63;;
44145;SDS011;29809;52.432;4.780;2023-02-15T07:42:10;15.50;;;11.75;;
44145;SDS011;29809;52.432;4.780;2023-02-15T07:44:35;19.47;;;12.33;;
44145;SDS011;29809;52.432;4.780;2023-02-15T07:47:00;15.85;;;11.70;;
44145;SDS011;29809;52.432;4.780;2023-02-15T07:49:26;17.47;;;12.13;;
44145;SDS011;29809;52.432;4.780;2023-02-15T07:51:51;16.27;;;11.80;;
44145;SDS011;29809;52.432;4.780;2023-02-15T07:54:16;19.07;;;12.97;;
44145;SDS011;29809;52.432;4.780;2023-02-15T07:56:41;18.65;;;12.02;;
44145;SDS011;29809;52.432;4.780;2023-02-15T07:59:06;13.70;;;10.90;;
44145;SDS011;29809;52.432;4.780;2023-02-15T08:01:36;15.90;;;12.87;;
44145;SDS011;29809;52.432;4.780;2023-02-15T08:04:02;15.80;;;11.17;;
44145;SDS011;29809;52.432;4.780;2023-02-15T08:06:29;13.70;;;11.37;;
44145;SDS011;29809;52.432;4.780;2023-02-15T08:08:55;14.50;;;11.98;;
44145;SDS011;29809;52.432;4.780;2023-02-15T08:11:22;17.10;;;11.87;;
44145;SDS011;29809;52.432;4.780;2023-02-15T08:13:54;14.33;;;11.63;;
44145;SDS011;29809;52.432;4.780;2023-02-15T08:18:51;17.47;;;11.80;;
44145;SDS011;29809;52.432;4.780;2023-02-15T08:21:17;17.57;;;11.67;;
44145;SDS011;29809;52.432;4.780;2023-02-15T08:23:42;14.27;;;11.80;;
44145;SDS011;29809;52.432;4.780;2023-02-15T08:26:07;14.23;;;11.60;;
44145;SDS011;29809;52.432;4.780;2023-02-15T08:28:32;16.45;;;11.25;;
44145;SDS011;29809;52.432;4.780;2023-02-15T08:31:04;15.07;;;11.70;;
44145;SDS011;29809;52.432;4.780;2023-02-15T08:33:30;16.00;;;11.70;;
44145;SDS011;29809;52.432;4.780;2023-02-15T08:35:55;14.43;;;11.87;;
44145;SDS011;29809;52.432;4.780;2023-02-15T08:38:20;16.30;;;11.85;;
44145;SDS011;29809;52.432;4.780;2023-02-15T08:40:46;15.70;;;11.17;;
44145;SDS011;29809;52.432;4.780;2023-02-15T08:43:11;14.37;;;11.50;;
44145;SDS011;29809;52.432;4.780;2023-02-15T08:45:36;16.93;;;11.77;;
44145;SDS011;29809;52.432;4.780;2023-02-15T08:48:01;17.15;;;12.00;;
44145;SDS011;29809;52.432;4.780;2023-02-15T08:50:26;13.77;;;12.10;;
44145;SDS011;29809;52.432;4.780;2023-02-15T08:52:52;17.90;;;12.50;;
44145;SDS011;29809;52.432;4.780;2023-02-15T08:55:17;16.50;;;12.30;;
44145;SDS011;29809;52.432;4.780;2023-02-15T08:57:42;15.73;;;12.63;;
44145;SDS011;29809;52.432;4.780;2023-02-15T09:00:10;13.77;;;12.30;;
44145;SDS011;29809;52.432;4.780;2023-02-15T09:02:36;13.65;;;11.32;;
44145;SDS011;29809;52.432;4.780;2023-02-15T09:05:02;13.82;;;11.50;;
44145;SDS011;29809;52.432;4.780;2023-02-15T09:07:27;16.48;;;12.45;;
44145;SDS011;29809;52.432;4.780;2023-02-15T09:09:53;15.43;;;11.07;;
44145;SDS011;29809;52.432;4.780;2023-02-15T09:12:19;12.50;;;11.10;;
44145;SDS011;29809;52.432;4.780;2023-02-15T09:14:44;12.50;;;11.20;;
44145;SDS011;29809;52.432;4.780;2023-02-15T09:17:09;14.07;;;11.23;;
44145;SDS011;29809;52.432;4.780;2023-02-15T09:19:34;13.47;;;11.90;;
44145;SDS011;29809;52.432;4.780;2023-02-15T09:22:00;15.47;;;11.63;;
44145;SDS011;29809;52.432;4.780;2023-02-15T09:24:25;13.38;;;11.60;;
44145;SDS011;29809;52.432;4.780;2023-02-15T09:26:50;13.27;;;11.80;;
44145;SDS011;29809;52.432;4.780;2023-02-15T09:29:16;13.20;;;11.23;;
44145;SDS011;29809;52.432;4.780;2023-02-15T09:31:43;16.37;;;12.40;;
44145;SDS011;29809;52.432;4.780;2023-02-15T09:34:09;14.80;;;11.87;;
44145;SDS011;29809;52.432;4.780;2023-02-15T09:36:35;15.43;;;11.67;;
44145;SDS011;29809;52.432;4.780;2023-02-15T09:39:04;14.27;;;11.80;;
44145;SDS011;29809;52.432;4.780;2023-02-15T09:52:00;13.27;;;11.87;;
44145;SDS011;29809;52.432;4.780;2023-02-15T09:54:54;13.43;;;11.73;;
44145;SDS011;29809;52.432;4.780;2023-02-15T09:57:21;13.38;;;11.95;;
44145;SDS011;29809;52.432;4.780;2023-02-15T10:12:36;14.23;;;11.80;;
44145;SDS011;29809;52.432;4.780;2023-02-15T10:15:14;12.13;;;10.87;;
44145;SDS011;29809;52.432;4.780;2023-02-15T10:20:33;13.77;;;11.50;;
44145;SDS011;29809;52.432;4.780;2023-02-15T10:31:04;14.77;;;12.00;;
44145;SDS011;29809;52.432;4.780;2023-02-15T10:38:58;14.50;;;12.67;;
44145;SDS011;29809;52.432;4.780;2023-02-15T10:49:05;13.23;;;11.83;;
44145;SDS011;29809;52.432;4.780;2023-02-15T10:54:14;13.95;;;12.25;;
44145;SDS011;29809;52.432;4.780;2023-02-15T10:56:50;15.33;;;13.20;;
44145;SDS011;29809;52.432;4.780;2023-02-15T11:01:51;16.90;;;13.07;;
44145;SDS011;29809;52.432;4.780;2023-02-15T11:04:29;15.32;;;13.65;;
44145;SDS011;29809;52.432;4.780;2023-02-15T11:06:58;14.87;;;12.57;;
44145;SDS011;29809;52.432;4.780;2023-02-15T11:09:25;15.30;;;13.30;;
44145;SDS011;29809;52.432;4.780;2023-02-15T11:11:54;15.55;;;13.85;;
44145;SDS011;29809;52.432;4.780;2023-02-15T11:17:08;16.98;;;13.80;;
44145;SDS011;29809;52.432;4.780;2023-02-15T11:20:17;14.60;;;12.00;;
44145;SDS011;29809;52.432;4.780;2023-02-15T11:22:25;16.13;;;13.35;;
44145;SDS011;29809;52.432;4.780;2023-02-15T11:24:50;16.75;;;13.85;;
44145;SDS011;29809;52.432;4.780;2023-02-15T11:27:18;16.58;;;13.85;;
44145;SDS011;29809;52.432;4.780;2023-02-15T11:29:55;15.75;;;13.20;;
44145;SDS011;29809;52.432;4.780;2023-02-15T11:34:54;17.93;;;12.70;;
44145;SDS011;29809;52.432;4.780;2023-02-15T11:37:32;16.92;;;13.45;;
44145;SDS011;29809;52.432;4.780;2023-02-15T11:39:59;14.45;;;12.93;;
44145;SDS011;29809;52.432;4.780;2023-02-15T11:42:26;16.40;;;13.40;;
44145;SDS011;29809;52.432;4.780;2023-02-15T11:47:23;17.42;;;13.98;;
44145;SDS011;29809;52.432;4.780;2023-02-15T11:49:48;19.00;;;15.50;;
44145;SDS011;29809;52.432;4.780;2023-02-15T11:52:14;18.40;;;14.68;;
44145;SDS011;29809;52.432;4.780;2023-02-15T11:54:42;20.20;;;16.65;;
44145;SDS011;29809;52.432;4.780;2023-02-15T11:57:19;21.00;;;17.15;;
44145;SDS011;29809;52.432;4.780;2023-02-15T11:59:47;18.10;;;14.93;;
44145;SDS011;29809;52.432;4.780;2023-02-15T12:02:17;21.35;;;15.48;;
44145;SDS011;29809;52.432;4.780;2023-02-15T12:04:43;19.00;;;14.30;;
44145;SDS011;29809;52.432;4.780;2023-02-15T12:07:17;16.07;;;14.00;;
44145;SDS011;29809;52.432;4.780;2023-02-15T12:12:23;19.65;;;16.23;;
44145;SDS011;29809;52.432;4.780;2023-02-15T12:14:52;19.70;;;15.52;;
44145;SDS011;29809;52.432;4.780;2023-02-15T12:17:20;18.75;;;15.55;;
44145;SDS011;29809;52.432;4.780;2023-02-15T12:19:46;17.10;;;14.90;;
44145;SDS011;29809;52.432;4.780;2023-02-15T12:22:22;19.45;;;16.00;;
44145;SDS011;29809;52.432;4.780;2023-02-15T12:24:49;20.73;;;16.40;;
44145;SDS011;29809;52.432;4.780;2023-02-15T12:27:17;22.33;;;17.25;;
44145;SDS011;29809;52.432;4.780;2023-02-15T12:29:44;22.73;;;17.80;;
44145;SDS011;29809;52.432;4.780;2023-02-15T12:35:09;22.87;;;18.93;;
44145;SDS011;29809;52.432;4.780;2023-02-15T12:37:38;21.73;;;18.52;;
44145;SDS011;29809;52.432;4.780;2023-02-15T12:40:20;24.73;;;19.55;;
44145;SDS011;29809;52.432;4.780;2023-02-15T12:42:46;24.50;;;19.48;;
44145;SDS011;29809;52.432;4.780;2023-02-15T12:45:22;25.03;;;18.50;;
44145;SDS011;29809;52.432;4.780;2023-02-15T12:47:47;23.80;;;19.05;;
44145;SDS011;29809;52.432;4.780;2023-02-15T12:50:32;22.87;;;19.37;;
44145;SDS011;29809;52.432;4.780;2023-02-15T12:56:00;22.90;;;19.37;;
44145;SDS011;29809;52.432;4.780;2023-02-15T12:58:29;25.63;;;19.67;;
44145;SDS011;29809;52.432;4.780;2023-02-15T13:01:02;23.03;;;19.07;;
44145;SDS011;29809;52.432;4.780;2023-02-15T13:03:28;22.83;;;19.63;;
44145;SDS011;29809;52.432;4.780;2023-02-15T13:05:53;22.27;;;19.27;;
44145;SDS011;29809;52.432;4.780;2023-02-15T13:08:20;24.85;;;19.85;;
44145;SDS011;29809;52.432;4.780;2023-02-15T13:10:53;25.60;;;19.47;;
44145;SDS011;29809;52.432;4.780;2023-02-15T13:13:19;25.35;;;21.17;;
44145;SDS011;29809;52.432;4.780;2023-02-15T13:15:51;26.13;;;20.80;;
44145;SDS011;29809;52.432;4.780;2023-02-15T13:18:21;25.23;;;20.07;;
44145;SDS011;29809;52.432;4.780;2023-02-15T13:20:49;26.43;;;20.43;;
44145;SDS011;29809;52.432;4.780;2023-02-15T13:23:50;23.40;;;20.40;;
44145;SDS011;29809;52.432;4.780;2023-02-15T13:26:08;26.30;;;21.33;;
44145;SDS011;29809;52.432;4.780;2023-02-15T13:28:43;28.33;;;22.00;;
44145;SDS011;29809;52.432;4.780;2023-02-15T13:31:13;25.33;;;20.93;;
44145;SDS011;29809;52.432;4.780;2023-02-15T13:33:39;24.45;;;18.98;;
44145;SDS011;29809;52.432;4.780;2023-02-15T13:42:12;25.17;;;21.42;;
44145;SDS011;29809;52.432;4.780;2023-02-15T13:59:20;23.83;;;19.60;;
44145;SDS011;29809;52.432;4.780;2023-02-15T14:07:04;20.77;;;17.07;;
44145;SDS011;29809;52.432;4.780;2023-02-15T14:17:29;18.40;;;16.37;;
44145;SDS011;29809;52.432;4.780;2023-02-15T14:20:14;21.17;;;16.52;;
44145;SDS011;29809;52.432;4.780;2023-02-15T14:22:43;19.60;;;16.83;;
44145;SDS011;29809;52.432;4.780;2023-02-15T14:25:20;21.23;;;16.77;;
44145;SDS011;29809;52.432;4.780;2023-02-15T14:27:59;19.13;;;16.30;;
44145;SDS011;29809;52.432;4.780;2023-02-15T14:30:36;20.98;;;16.55;;
44145;SDS011;29809;52.432;4.780;2023-02-15T14:33:46;19.98;;;15.95;;
44145;SDS011;29809;52.432;4.780;2023-02-15T14:35:50;17.52;;;15.75;;
44145;SDS011;29809;52.432;4.780;2023-02-15T14:38:21;17.92;;;14.68;;
44145;SDS011;29809;52.432;4.780;2023-02-15T14:41:13;23.08;;;16.63;;
44145;SDS011;29809;52.432;4.780;2023-02-15T14:43:45;18.85;;;16.60;;
44145;SDS011;29809;52.432;4.780;2023-02-15T14:46:21;19.30;;;16.25;;
44145;SDS011;29809;52.432;4.780;2023-02-15T14:54:08;19.17;;;15.77;;
44145;SDS011;29809;52.432;4.780;2023-02-15T14:56:33;19.27;;;15.48;;
44145;SDS011;29809;52.432;4.780;2023-02-15T15:01:36;19.95;;;16.75;;
44145;SDS011;29809;52.432;4.780;2023-02-15T15:04:12;19.33;;;16.53;;
44145;SDS011;29809;52.432;4.780;2023-02-15T15:06:40;18.25;;;15.73;;
44145;SDS011;29809;52.432;4.780;2023-02-15T15:09:11;20.80;;;16.40;;
44145;SDS011;29809;52.432;4.780;2023-02-15T15:11:46;20.45;;;16.75;;
44145;SDS011;29809;52.432;4.780;2023-02-15T15:16:56;20.05;;;15.77;;
44145;SDS011;29809;52.432;4.780;2023-02-15T15:22:06;20.88;;;16.92;;
44145;SDS011;29809;52.432;4.780;2023-02-15T15:29:51;20.58;;;15.70;;
44145;SDS011;29809;52.432;4.780;2023-02-15T15:32:17;18.67;;;15.52;;
44145;SDS011;29809;52.432;4.780;2023-02-15T15:40:48;18.92;;;15.38;;
44145;SDS011;29809;52.432;4.780;2023-02-15T15:46:01;17.20;;;15.07;;
44145;SDS011;29809;52.432;4.780;2023-02-15T15:48:36;17.65;;;15.23;;
44145;SDS011;29809;52.432;4.780;2023-02-15T15:51:05;23.30;;;15.57;;
44145;SDS011;29809;52.432;4.780;2023-02-15T15:53:34;21.35;;;17.40;;
44145;SDS011;29809;52.432;4.780;2023-02-15T15:56:04;20.30;;;14.57;;
44145;SDS011;29809;52.432;4.780;2023-02-15T15:58:30;21.02;;;16.40;;
44145;SDS011;29809;52.432;4.780;2023-02-15T16:01:01;28.42;;;16.33;;
44145;SDS011;29809;52.432;4.780;2023-02-15T16:03:28;16.52;;;14.73;;
44145;SDS011;29809;52.432;4.780;2023-02-15T16:05:54;18.92;;;15.50;;
44145;SDS011;29809;52.432;4.780;2023-02-15T16:08:41;19.50;;;15.25;;
44145;SDS011;29809;52.432;4.780;2023-02-15T16:11:21;20.60;;;16.77;;
44145;SDS011;29809;52.432;4.780;2023-02-15T16:13:47;19.95;;;16.73;;
44145;SDS011;29809;52.432;4.780;2023-02-15T16:16:13;24.50;;;18.48;;
44145;SDS011;29809;52.432;4.780;2023-02-15T16:18:44;22.70;;;18.13;;
44145;SDS011;29809;52.432;4.780;2023-02-15T16:21:16;19.85;;;14.98;;
44145;SDS011;29809;52.432;4.780;2023-02-15T16:23:50;19.33;;;15.55;;
44145;SDS011;29809;52.432;4.780;2023-02-15T16:29:12;22.58;;;16.38;;
44145;SDS011;29809;52.432;4.780;2023-02-15T16:31:38;20.83;;;16.98;;
44145;SDS011;29809;52.432;4.780;2023-02-15T16:34:07;23.70;;;17.30;;
44145;SDS011;29809;52.432;4.780;2023-02-15T16:36:34;22.65;;;16.42;;
44145;SDS011;29809;52.432;4.780;2023-02-15T16:39:05;27.10;;;18.02;;
44145;SDS011;29809;52.432;4.780;2023-02-15T16:41:31;27.25;;;19.38;;
44145;SDS011;29809;52.432;4.780;2023-02-15T16:43:57;25.13;;;20.33;;
44145;SDS011;29809;52.432;4.780;2023-02-15T16:48:52;30.02;;;19.88;;
44145;SDS011;29809;52.432;4.780;2023-02-15T16:51:20;26.63;;;18.60;;
44145;SDS011;29809;52.432;4.780;2023-02-15T16:53:46;29.15;;;18.73;;
44145;SDS011;29809;52.432;4.780;2023-02-15T16:56:12;26.40;;;18.25;;
44145;SDS011;29809;52.432;4.780;2023-02-15T16:58:40;25.40;;;19.17;;
44145;SDS011;29809;52.432;4.780;2023-02-15T17:01:07;26.00;;;18.85;;
44145;SDS011;29809;52.432;4.780;2023-02-15T17:03:34;24.92;;;18.95;;
44145;SDS011;29809;52.432;4.780;2023-02-15T17:05:59;21.17;;;17.77;;
44145;SDS011;29809;52.432;4.780;2023-02-15T17:13:35;24.70;;;18.30;;
44145;SDS011;29809;52.432;4.780;2023-02-15T17:18:26;25.70;;;19.02;;
44145;SDS011;29809;52.432;4.780;2023-02-15T17:20:54;27.00;;;20.63;;